createdAt,value
2018-12-29T00:00:12.517Z,102298.91
2018-12-29T00:02:42.508Z,102295.04
2018-12-29T00:05:10.970Z,102298.82
2018-12-29T00:07:39.440Z,102295.27
2018-12-29T00:10:07.913Z,102293.38
2018-12-29T00:12:36.358Z,102300.45
2018-12-29T00:15:05.359Z,102304.06
2018-12-29T00:17:33.803Z,102300.55
2018-12-29T00:20:02.274Z,102304.08
2018-12-29T00:22:30.716Z,102305.50
2018-12-29T00:24:59.180Z,102297.26
2018-12-29T00:27:27.628Z,102302.70
2018-12-29T00:29:56.141Z,102297.80
2018-12-29T00:32:24.581Z,102301.67
2018-12-29T00:34:53.051Z,102303.71
2018-12-29T00:37:21.513Z,102307.13
2018-12-29T00:39:49.987Z,102300.82
2018-12-29T00:42:18.435Z,102307.08
2018-12-29T00:44:46.889Z,102303.13
2018-12-29T00:47:15.337Z,102308.30
2018-12-29T00:49:43.837Z,102306.73
2018-12-29T00:52:12.285Z,102312.01
2018-12-29T00:54:41.031Z,102313.03
2018-12-29T00:57:09.492Z,102315.03
2018-12-29T00:59:37.932Z,102311.80
2018-12-29T01:02:06.400Z,102318.56
2018-12-29T01:04:34.843Z,102309.65
2018-12-29T01:07:03.296Z,102312.70
2018-12-29T01:09:31.745Z,102317.47
2018-12-29T01:12:00.331Z,102319.21
2018-12-29T01:14:28.788Z,102319.16
2018-12-29T01:16:57.258Z,102323.98
2018-12-29T01:19:25.726Z,102324.05
2018-12-29T01:21:54.170Z,102325.34
2018-12-29T01:24:22.633Z,102329.29
2018-12-29T01:26:51.102Z,102322.91
2018-12-29T01:29:19.547Z,102324.92
2018-12-29T01:31:48.007Z,102322.36
2018-12-29T01:34:16.449Z,102321.89
2018-12-29T01:36:44.918Z,102321.05
2018-12-29T01:39:13.372Z,102317.66
2018-12-29T01:41:41.840Z,102315.88
2018-12-29T01:44:10.286Z,102316.52
2018-12-29T01:46:38.733Z,102316.02
2018-12-29T01:49:07.170Z,102311.61
2018-12-29T01:51:35.651Z,102316.62
2018-12-29T01:54:04.089Z,102309.16
2018-12-29T01:56:32.539Z,102304.27
2018-12-29T01:59:00.996Z,102308.08
2018-12-29T02:01:29.469Z,102300.00
2018-12-29T02:03:57.937Z,102306.05
2018-12-29T02:06:26.419Z,102296.61
2018-12-29T02:08:55.137Z,102295.38
2018-12-29T02:11:23.634Z,102301.16
2018-12-29T02:13:52.071Z,102297.69
2018-12-29T02:16:20.529Z,102298.49
2018-12-29T02:18:48.973Z,102292.52
2018-12-29T02:21:17.427Z,102295.72
2018-12-29T02:23:45.898Z,102292.58
2018-12-29T02:26:14.385Z,102296.04
2018-12-29T02:28:42.851Z,102295.72
2018-12-29T02:31:11.279Z,102294.34
2018-12-29T02:33:39.735Z,102296.34
2018-12-29T02:36:08.179Z,102294.36
2018-12-29T02:38:36.629Z,102296.04
2018-12-29T02:41:05.065Z,102294.55
2018-12-29T02:43:33.525Z,102290.27
2018-12-29T02:46:02.031Z,102290.40
2018-12-29T02:48:30.495Z,102286.40
2018-12-29T02:50:58.963Z,102278.09
2018-12-29T02:53:27.444Z,102284.48
2018-12-29T02:55:55.893Z,102282.70
2018-12-29T02:58:24.342Z,102283.03
2018-12-29T03:00:52.798Z,102276.95
2018-12-29T03:03:21.254Z,102278.16
2018-12-29T03:05:49.691Z,102267.36
2018-12-29T03:08:18.169Z,102271.12
2018-12-29T03:10:46.623Z,102272.72
2018-12-29T03:13:15.137Z,102269.06
2018-12-29T03:15:43.584Z,102275.73
2018-12-29T03:18:12.051Z,102275.33
2018-12-29T03:20:40.506Z,102269.88
2018-12-29T03:23:08.967Z,102271.78
2018-12-29T03:25:37.447Z,102272.36
2018-12-29T03:28:05.891Z,102272.03
2018-12-29T03:30:34.355Z,102270.16
2018-12-29T03:33:02.828Z,102268.66
2018-12-29T03:35:31.256Z,102271.11
2018-12-29T03:37:59.703Z,102264.02
2018-12-29T03:40:28.526Z,102266.06
2018-12-29T03:42:56.962Z,102262.25
2018-12-29T03:45:25.416Z,102267.36
2018-12-29T03:47:53.859Z,102260.44
2018-12-29T03:50:22.312Z,102267.69
2018-12-29T03:52:50.754Z,102261.23
2018-12-29T03:55:19.230Z,102263.36
2018-12-29T03:57:47.666Z,102256.13
2018-12-29T04:00:16.116Z,102251.73
2018-12-29T04:02:44.558Z,102254.78
2018-12-29T04:05:13.030Z,102252.47
2018-12-29T04:07:41.476Z,102252.59
2018-12-29T04:10:15.054Z,102254.45
2018-12-29T04:12:46.184Z,102251.47
2018-12-29T04:15:14.678Z,102259.48
2018-12-29T04:17:43.102Z,102254.78
2018-12-29T04:20:11.555Z,102256.80
2018-12-29T04:22:40.012Z,102263.07
2018-12-29T04:25:08.464Z,102260.55
2018-12-29T04:27:36.922Z,102253.47
2018-12-29T04:30:06.109Z,102253.87
2018-12-29T04:32:34.555Z,102258.78
2018-12-29T04:35:03.013Z,102261.17
2018-12-29T04:37:31.487Z,102267.84
2018-12-29T04:39:59.958Z,102264.03
2018-12-29T04:42:28.418Z,102261.56
2018-12-29T04:44:56.874Z,102264.27
2018-12-29T04:47:25.319Z,102264.27
2018-12-29T04:49:53.801Z,102261.45
2018-12-29T04:52:22.238Z,102269.45
2018-12-29T04:54:50.705Z,102259.89
2018-12-29T04:57:19.158Z,102260.14
2018-12-29T04:59:47.611Z,102264.83
2018-12-29T05:02:16.059Z,102260.06
2018-12-29T05:04:44.501Z,102262.03
2018-12-29T05:07:12.971Z,102261.23
2018-12-29T05:09:41.413Z,102259.05
2018-12-29T05:12:09.861Z,102261.23
2018-12-29T05:14:38.309Z,102260.22
2018-12-29T05:17:06.797Z,102260.91
2018-12-29T05:19:35.241Z,102257.36
2018-12-29T05:22:03.695Z,102262.88
2018-12-29T05:24:32.149Z,102266.55
2018-12-29T05:27:00.659Z,102275.23
2018-12-29T05:29:29.103Z,102269.11
2018-12-29T05:31:57.579Z,102271.09
2018-12-29T05:34:27.682Z,102274.02
2018-12-29T05:36:56.165Z,102277.53
2018-12-29T05:39:24.610Z,102273.25
2018-12-29T05:41:53.076Z,102271.84
2018-12-29T05:44:21.522Z,102276.73
2018-12-29T05:46:49.994Z,102277.81
2018-12-29T05:49:18.448Z,102272.91
2018-12-29T05:51:46.885Z,102274.75
2018-12-29T05:54:15.362Z,102275.98
2018-12-29T05:56:43.831Z,102285.08
2018-12-29T05:59:12.282Z,102285.69
2018-12-29T06:01:40.916Z,102284.93
2018-12-29T06:04:09.358Z,102283.56
2018-12-29T06:06:37.804Z,102288.41
2018-12-29T06:09:06.878Z,102286.86
2018-12-29T06:11:35.344Z,102282.22
2018-12-29T06:14:03.775Z,102286.36
2018-12-29T06:16:32.254Z,102298.25
2018-12-29T06:19:00.709Z,102288.73
2018-12-29T06:21:29.164Z,102290.61
2018-12-29T06:23:57.642Z,102292.47
2018-12-29T06:26:26.098Z,102294.66
2018-12-29T06:28:54.547Z,102292.67
2018-12-29T06:31:22.998Z,102302.67
2018-12-29T06:33:51.511Z,102297.59
2018-12-29T06:36:20.001Z,102297.14
2018-12-29T06:38:48.473Z,102310.67
2018-12-29T06:41:16.918Z,102324.79
2018-12-29T06:43:45.397Z,102314.61
2018-12-29T06:46:13.839Z,102323.15
2018-12-29T06:48:42.327Z,102312.97
2018-12-29T06:51:10.777Z,102320.31
2018-12-29T06:53:39.282Z,102308.41
2018-12-29T06:56:07.728Z,102304.77
2018-12-29T06:58:36.184Z,102317.94
2018-12-29T07:01:04.642Z,102310.47
2018-12-29T07:03:33.104Z,102317.05
2018-12-29T07:06:01.562Z,102320.03
2018-12-29T07:08:30.039Z,102313.58
2018-12-29T07:10:58.492Z,102314.27
2018-12-29T07:13:26.958Z,102316.16
2018-12-29T07:15:55.413Z,102308.19
2018-12-29T07:18:23.887Z,102310.14
2018-12-29T07:20:52.342Z,102299.55
2018-12-29T07:23:20.857Z,102297.41
2018-12-29T07:25:49.311Z,102293.48
2018-12-29T07:28:17.796Z,102297.63
2018-12-29T07:30:46.242Z,102293.86
2018-12-29T07:33:14.690Z,102288.15
2018-12-29T07:35:43.148Z,102296.22
2018-12-29T07:38:11.589Z,102305.57
2018-12-29T07:40:40.056Z,102302.48
2018-12-29T07:43:08.488Z,102299.39
2018-12-29T07:45:36.955Z,102299.12
2018-12-29T07:48:05.391Z,102310.14
2018-12-29T07:50:33.835Z,102301.73
2018-12-29T07:53:02.323Z,102311.22
2018-12-29T07:55:30.815Z,102304.48
2018-12-29T07:57:59.266Z,102301.23
2018-12-29T08:00:27.717Z,102305.23
2018-12-29T08:02:56.170Z,102308.91
2018-12-29T08:05:24.625Z,102308.04
2018-12-29T08:07:53.093Z,102300.62
2018-12-29T08:10:21.566Z,102309.80
2018-12-29T08:12:50.011Z,102304.54
2018-12-29T08:15:18.508Z,102299.56
2018-12-29T08:17:46.919Z,102297.23
2018-12-29T08:20:15.383Z,102300.52
2018-12-29T08:22:43.837Z,102301.51
2018-12-29T08:25:12.416Z,102294.80
2018-12-29T08:27:40.865Z,102294.44
2018-12-29T08:30:09.336Z,102297.63
2018-12-29T08:32:37.794Z,102290.56
2018-12-29T08:35:06.597Z,102293.22
2018-12-29T08:37:35.067Z,102300.02
2018-12-29T08:40:03.729Z,102302.28
2018-12-29T08:42:32.220Z,102310.49
2018-12-29T08:45:00.709Z,102306.80
2018-12-29T08:47:29.150Z,102304.14
2018-12-29T08:49:57.615Z,102305.60
2018-12-29T08:52:26.065Z,102312.11
2018-12-29T08:54:54.513Z,102309.40
2018-12-29T08:57:22.957Z,102307.34
2018-12-29T08:59:51.441Z,102306.27
2018-12-29T09:02:19.882Z,102302.92
2018-12-29T09:04:48.321Z,102311.64
2018-12-29T09:07:16.831Z,102298.92
2018-12-29T09:09:45.279Z,102302.92
2018-12-29T09:12:13.743Z,102307.61
2018-12-29T09:14:42.187Z,102308.58
2018-12-29T09:17:12.273Z,102304.91
2018-12-29T09:19:41.003Z,102304.17
2018-12-29T09:22:09.475Z,102304.19
2018-12-29T09:24:37.915Z,102303.72
2018-12-29T09:27:06.387Z,102307.61
2018-12-29T09:29:34.838Z,102308.19
2018-12-29T09:32:03.287Z,102298.55
2018-12-29T09:34:31.741Z,102300.80
2018-12-29T09:37:00.198Z,102304.15
2018-12-29T09:39:28.643Z,102300.62
2018-12-29T09:41:57.103Z,102301.81
2018-12-29T09:44:25.568Z,102302.37
2018-12-29T09:46:55.014Z,102302.16
2018-12-29T09:49:23.552Z,102305.28
2018-12-29T09:51:52.031Z,102303.19
2018-12-29T09:54:20.473Z,102305.70
2018-12-29T09:56:49.001Z,102298.64
2018-12-29T09:59:17.463Z,102302.58
2018-12-29T10:01:45.936Z,102291.42
2018-12-29T10:04:14.382Z,102296.73
2018-12-29T10:06:42.827Z,102290.28
2018-12-29T10:09:11.287Z,102276.81
2018-12-29T10:11:39.781Z,102271.24
2018-12-29T10:14:08.223Z,102268.05
2018-12-29T10:16:36.683Z,102269.80
2018-12-29T10:19:05.126Z,102261.58
2018-12-29T10:21:33.601Z,102259.61
2018-12-29T10:24:02.035Z,102256.66
2018-12-29T10:26:30.520Z,102249.55
2018-12-29T10:28:58.972Z,102248.67
2018-12-29T10:31:27.423Z,102247.16
2018-12-29T10:33:55.870Z,102244.85
2018-12-29T10:36:24.321Z,102231.94
2018-12-29T10:38:52.810Z,102226.95
2018-12-29T10:41:21.246Z,102229.34
2018-12-29T10:43:49.714Z,102227.98
2018-12-29T10:46:18.145Z,102230.61
2018-12-29T10:48:46.697Z,102231.84
2018-12-29T10:51:15.152Z,102226.87
2018-12-29T10:53:43.610Z,102222.66
2018-12-29T10:56:12.070Z,102219.66
2018-12-29T10:58:40.544Z,102214.44
2018-12-29T11:01:08.995Z,102211.79
2018-12-29T11:03:37.465Z,102216.06
2018-12-29T11:06:05.923Z,102216.12
2018-12-29T11:08:34.391Z,102209.55
2018-12-29T11:11:02.881Z,102216.63
2018-12-29T11:13:31.395Z,102215.39
2018-12-29T11:15:59.853Z,102211.58
2018-12-29T11:18:28.310Z,102209.63
2018-12-29T11:20:56.760Z,102208.05
2018-12-29T11:23:25.241Z,102199.17
2018-12-29T11:25:53.682Z,102196.83
2018-12-29T11:28:22.167Z,102199.81
2018-12-29T11:30:50.611Z,102193.77
2018-12-29T11:33:19.067Z,102187.23
2018-12-29T11:35:49.143Z,102186.56
2018-12-29T11:38:17.607Z,102177.47
2018-12-29T11:40:46.081Z,102182.49
2018-12-29T11:43:14.564Z,102175.58
2018-12-29T11:45:43.018Z,102169.58
2018-12-29T11:48:11.494Z,102153.27
2018-12-29T11:50:39.946Z,102139.14
2018-12-29T11:53:08.406Z,102141.56
2018-12-29T11:55:36.977Z,102135.83
2018-12-29T11:58:05.467Z,102133.80
2018-12-29T12:00:33.911Z,102131.73
2018-12-29T12:03:02.348Z,102132.30
2018-12-29T12:05:30.805Z,102128.00
2018-12-29T12:07:59.255Z,102129.55
2018-12-29T12:10:27.733Z,102124.92
2018-12-29T12:12:56.197Z,102121.23
2018-12-29T12:15:24.668Z,102109.23
2018-12-29T12:17:57.408Z,102101.27
2018-12-29T12:20:23.339Z,102099.01
2018-12-29T12:22:51.816Z,102107.13
2018-12-29T12:25:20.258Z,102110.83
2018-12-29T12:27:49.012Z,102123.62
2018-12-29T12:30:17.470Z,102117.77
2018-12-29T12:32:45.937Z,102117.05
2018-12-29T12:35:14.418Z,102119.52
2018-12-29T12:37:42.861Z,102118.40
2018-12-29T12:40:11.315Z,102111.22
2018-12-29T12:42:39.775Z,102108.95
2018-12-29T12:45:08.239Z,102111.77
2018-12-29T12:47:36.708Z,102111.91
2018-12-29T12:50:05.534Z,102121.56
2018-12-29T12:52:34.380Z,102127.02
2018-12-29T12:55:02.829Z,102117.04
2018-12-29T12:57:31.271Z,102121.69
2018-12-29T13:00:00.263Z,102120.20
2018-12-29T13:02:29.008Z,102119.02
2018-12-29T13:04:57.467Z,102121.92
2018-12-29T13:07:25.917Z,102117.97
2018-12-29T13:09:54.377Z,102106.53
2018-12-29T13:12:22.839Z,102115.01
2018-12-29T13:14:51.570Z,102119.55
2018-12-29T13:17:20.029Z,102105.84
2018-12-29T13:19:48.488Z,102107.07
2018-12-29T13:22:16.962Z,102108.36
2018-12-29T13:24:45.407Z,102115.02
2018-12-29T13:27:14.071Z,102107.25
2018-12-29T13:29:42.544Z,102106.22
2018-12-29T13:32:11.013Z,102093.89
2018-12-29T13:34:39.460Z,102100.70
2018-12-29T13:37:07.916Z,102098.26
2018-12-29T13:39:36.786Z,102093.66
2018-12-29T13:42:05.301Z,102096.49
2018-12-29T13:44:33.734Z,102102.11
2018-12-29T13:47:02.209Z,102100.98
2018-12-29T13:49:30.689Z,102092.86
2018-12-29T13:51:59.330Z,102093.28
2018-12-29T13:54:27.767Z,102097.25
2018-12-29T13:56:56.215Z,102102.31
2018-12-29T13:59:24.668Z,102101.42
2018-12-29T14:01:53.120Z,102111.70
2018-12-29T14:04:22.382Z,102110.58
2018-12-29T14:06:50.855Z,102108.48
2018-12-29T14:09:19.310Z,102107.45
2018-12-29T14:11:47.781Z,102102.77
2018-12-29T14:14:16.231Z,102104.61
2018-12-29T14:16:44.694Z,102100.84
2018-12-29T14:19:13.166Z,102096.06
2018-12-29T14:21:41.640Z,102101.83
2018-12-29T14:24:10.078Z,102103.60
2018-12-29T14:26:38.572Z,102100.91
2018-12-29T14:29:07.015Z,102092.75
2018-12-29T14:31:35.531Z,102086.53
2018-12-29T14:34:03.974Z,102076.94
2018-12-29T14:36:32.432Z,102078.34
2018-12-29T14:39:00.898Z,102072.66
2018-12-29T14:41:29.393Z,102071.59
2018-12-29T14:43:57.848Z,102064.43
2018-12-29T14:46:26.317Z,102061.44
2018-12-29T14:48:54.754Z,102055.69
2018-12-29T14:51:23.195Z,102051.88
2018-12-29T14:53:51.665Z,102050.19
2018-12-29T14:56:20.125Z,102041.84
2018-12-29T14:58:48.592Z,102042.75
2018-12-29T15:01:17.033Z,102037.48
2018-12-29T15:03:45.507Z,102032.51
2018-12-29T15:06:13.939Z,102026.73
2018-12-29T15:08:42.400Z,102031.63
2018-12-29T15:11:10.852Z,102024.06
2018-12-29T15:13:40.859Z,102016.80
2018-12-29T15:16:09.297Z,102017.89
2018-12-29T15:18:43.732Z,102010.83
2018-12-29T15:21:07.969Z,102008.45
2018-12-29T15:23:36.432Z,101998.20
2018-12-29T15:26:04.873Z,101995.22
2018-12-29T15:28:33.350Z,101990.33
2018-12-29T15:31:01.792Z,101986.86
2018-12-29T15:33:30.762Z,101973.22
2018-12-29T15:35:59.209Z,101978.38
2018-12-29T15:38:27.690Z,101969.14
2018-12-29T15:40:56.404Z,101963.09
2018-12-29T15:43:24.876Z,101961.39
2018-12-29T15:45:53.325Z,101955.63
2018-12-29T15:48:22.064Z,101950.45
2018-12-29T15:50:50.533Z,101943.69
2018-12-29T15:53:19.008Z,101944.28
2018-12-29T15:55:47.465Z,101934.92
2018-12-29T15:58:16.197Z,101927.25
2018-12-29T16:00:44.696Z,101922.69
2018-12-29T16:03:13.326Z,101914.53
2018-12-29T16:05:41.798Z,101913.72
2018-12-29T16:08:10.259Z,101907.84
2018-12-29T16:10:38.725Z,101891.55
2018-12-29T16:13:07.186Z,101886.67
2018-12-29T16:15:35.663Z,101887.16
2018-12-29T16:18:04.093Z,101899.13
2018-12-29T16:20:32.653Z,101898.72
2018-12-29T16:23:01.102Z,101895.63
2018-12-29T16:25:29.568Z,101902.41
2018-12-29T16:27:57.999Z,101897.21
2018-12-29T16:30:26.840Z,101900.91
2018-12-29T16:32:55.682Z,101897.03
2018-12-29T16:35:24.146Z,101894.33
2018-12-29T16:37:52.602Z,101896.13
2018-12-29T16:40:21.085Z,101888.27
2018-12-29T16:42:49.523Z,101885.28
2018-12-29T16:45:18.212Z,101881.80
2018-12-29T16:47:46.647Z,101881.62
2018-12-29T16:50:15.121Z,101880.21
2018-12-29T16:52:43.566Z,101879.11
2018-12-29T16:55:12.431Z,101863.88
2018-12-29T16:57:40.884Z,101873.94
2018-12-29T17:00:09.475Z,101862.11
2018-12-29T17:02:37.932Z,101855.64
2018-12-29T17:05:06.653Z,101853.64
2018-12-29T17:07:35.123Z,101852.65
2018-12-29T17:10:04.035Z,101852.77
2018-12-29T17:12:32.519Z,101843.41
2018-12-29T17:15:01.451Z,101850.28
2018-12-29T17:17:29.914Z,101843.41
2018-12-29T17:19:58.388Z,101849.06
2018-12-29T17:22:26.873Z,101847.59
2018-12-29T17:24:55.317Z,101837.73
2018-12-29T17:27:23.809Z,101843.12
2018-12-29T17:29:52.441Z,101840.42
2018-12-29T17:32:20.897Z,101837.36
2018-12-29T17:34:49.351Z,101831.97
2018-12-29T17:37:17.848Z,101836.25
2018-12-29T17:39:46.377Z,101831.48
2018-12-29T17:42:14.899Z,101829.48
2018-12-29T17:44:43.415Z,101829.97
2018-12-29T17:47:11.850Z,101818.84
2018-12-29T17:49:40.297Z,101814.74
2018-12-29T17:52:08.776Z,101811.56
2018-12-29T17:54:37.223Z,101805.80
2018-12-29T17:57:07.867Z,101793.05
2018-12-29T17:59:36.341Z,101780.53
2018-12-29T18:02:04.835Z,101785.01
2018-12-29T18:04:33.562Z,101785.93
2018-12-29T18:07:02.018Z,101785.13
2018-12-29T18:09:30.484Z,101770.72
2018-12-29T18:11:59.032Z,101773.58
2018-12-29T18:14:27.562Z,101772.37
2018-12-29T18:16:56.058Z,101769.20
2018-12-29T18:19:30.545Z,101765.53
2018-12-29T18:21:54.722Z,101766.61
2018-12-29T18:24:23.183Z,101760.77
2018-12-29T18:26:51.764Z,101750.73
2018-12-29T18:29:20.244Z,101739.56
2018-12-29T18:31:48.898Z,101739.57
2018-12-29T18:34:17.364Z,101732.53
2018-12-29T18:36:45.811Z,101732.23
2018-12-29T18:39:14.269Z,101724.08
2018-12-29T18:41:42.741Z,101720.72
2018-12-29T18:44:11.482Z,101716.13
2018-12-29T18:46:39.985Z,101708.39
2018-12-29T18:49:08.479Z,101702.44
2018-12-29T18:51:37.713Z,101692.70
2018-12-29T18:54:06.181Z,101681.70
2018-12-29T18:56:34.627Z,101678.19
2018-12-29T18:59:03.101Z,101664.97
2018-12-29T19:01:31.547Z,101670.91
2018-12-29T19:04:00.045Z,101666.17
2018-12-29T19:06:28.493Z,101662.30
2018-12-29T19:08:56.954Z,101664.98
2018-12-29T19:11:25.611Z,101668.62
2018-12-29T19:13:54.069Z,101660.41
2018-12-29T19:16:22.540Z,101658.71
2018-12-29T19:18:51.009Z,101667.18
2018-12-29T19:21:21.236Z,101665.13
2018-12-29T19:23:50.085Z,101661.94
2018-12-29T19:26:18.904Z,101659.36
2018-12-29T19:28:47.785Z,101646.75
2018-12-29T19:31:16.636Z,101645.06
2018-12-29T19:33:45.087Z,101619.93
2018-12-29T19:36:13.574Z,101625.40
2018-12-29T19:38:42.047Z,101614.00
2018-12-29T19:41:10.977Z,101625.51
2018-12-29T19:43:39.440Z,101609.06
2018-12-29T19:46:08.375Z,101599.33
2018-12-29T19:48:36.868Z,101589.00
2018-12-29T19:51:05.328Z,101586.53
2018-12-29T19:53:34.212Z,101576.28
2018-12-29T19:56:02.665Z,101571.92
2018-12-29T19:58:31.137Z,101575.98
2018-12-29T20:00:59.602Z,101571.22
2018-12-29T20:03:28.113Z,101556.76
2018-12-29T20:05:56.545Z,101552.27
2018-12-29T20:08:25.051Z,101552.78
2018-12-29T20:10:53.526Z,101552.97
2018-12-29T20:13:22.025Z,101542.56
2018-12-29T20:15:50.579Z,101538.99
2018-12-29T20:18:19.093Z,101531.84
2018-12-29T20:20:47.568Z,101529.97
2018-12-29T20:23:16.294Z,101527.97
2018-12-29T20:25:44.788Z,101543.34
2018-12-29T20:28:14.713Z,101535.41
2018-12-29T20:30:43.294Z,101523.32
2018-12-29T20:33:11.749Z,101517.64
2018-12-29T20:35:40.616Z,101514.08
2018-12-29T20:38:09.099Z,101503.65
2018-12-29T20:40:37.582Z,101505.05
2018-12-29T20:43:06.162Z,101492.66
2018-12-29T20:45:34.608Z,101491.86
2018-12-29T20:48:03.082Z,101489.98
2018-12-29T20:50:31.563Z,101471.73
2018-12-29T20:53:00.015Z,101471.92
2018-12-29T20:55:28.504Z,101463.56
2018-12-29T20:57:56.978Z,101461.60
2018-12-29T21:00:25.476Z,101451.69
2018-12-29T21:02:54.405Z,101442.84
2018-12-29T21:05:22.889Z,101439.09
2018-12-29T21:07:51.329Z,101443.22
2018-12-29T21:10:19.822Z,101428.85
2018-12-29T21:12:48.286Z,101428.48
2018-12-29T21:15:16.776Z,101431.95
2018-12-29T21:17:45.252Z,101420.81
2018-12-29T21:20:17.428Z,101407.84
2018-12-29T21:22:43.971Z,101403.86
2018-12-29T21:25:12.458Z,101399.99
2018-12-29T21:27:40.931Z,101391.97
2018-12-29T21:30:09.694Z,101388.38
2018-12-29T21:32:38.169Z,101384.70
2018-12-29T21:35:06.655Z,101379.89
2018-12-29T21:37:35.121Z,101385.13
2018-12-29T21:40:04.756Z,101382.84
2018-12-29T21:42:33.264Z,101373.80
2018-12-29T21:45:01.739Z,101374.89
2018-12-29T21:47:30.230Z,101366.94
2018-12-29T21:49:58.707Z,101363.05
2018-12-29T21:52:27.231Z,101354.75
2018-12-29T21:54:55.711Z,101360.30
2018-12-29T21:57:24.181Z,101352.97
2018-12-29T21:59:52.642Z,101339.66
2018-12-29T22:02:21.158Z,101344.53
2018-12-29T22:04:49.614Z,101351.17
2018-12-29T22:07:18.095Z,101337.80
2018-12-29T22:09:46.539Z,101340.39
2018-12-29T22:12:15.401Z,101337.11
2018-12-29T22:14:43.859Z,101333.05
2018-12-29T22:17:12.424Z,101330.48
2018-12-29T22:19:40.886Z,101330.66
2018-12-29T22:22:09.527Z,101326.02
2018-12-29T22:24:37.995Z,101316.04
2018-12-29T22:27:06.469Z,101318.44
2018-12-29T22:29:34.963Z,101317.86
2018-12-29T22:32:03.449Z,101313.11
2018-12-29T22:34:31.905Z,101314.27
2018-12-29T22:37:00.368Z,101307.90
2018-12-29T22:39:29.222Z,101305.55
2018-12-29T22:41:59.163Z,101292.49
2018-12-29T22:44:27.838Z,101297.93
2018-12-29T22:46:56.370Z,101297.10
2018-12-29T22:49:24.769Z,101286.34
2018-12-29T22:51:53.217Z,101286.48
2018-12-29T22:54:21.703Z,101284.61
2018-12-29T22:56:50.178Z,101286.25
2018-12-29T22:59:18.630Z,101275.86
2018-12-29T23:01:47.079Z,101273.97
2018-12-29T23:04:15.605Z,101274.16
2018-12-29T23:06:44.062Z,101270.19
2018-12-29T23:09:12.897Z,101266.73
2018-12-29T23:11:41.360Z,101258.28
2018-12-29T23:14:09.861Z,101259.88
2018-12-29T23:16:39.820Z,101264.78
2018-12-29T23:19:08.306Z,101259.02
2018-12-29T23:21:36.773Z,101254.67
2018-12-29T23:24:05.606Z,101254.27
2018-12-29T23:26:34.049Z,101249.08
2018-12-29T23:29:02.546Z,101242.47
2018-12-29T23:31:31.055Z,101251.88
2018-12-29T23:33:59.543Z,101244.97
2018-12-29T23:36:27.979Z,101242.77
2018-12-29T23:38:56.460Z,101240.78
2018-12-29T23:41:24.935Z,101237.75
2018-12-29T23:43:53.888Z,101231.77
2018-12-29T23:46:22.329Z,101229.47
2018-12-29T23:48:50.786Z,101232.01
2018-12-29T23:51:19.225Z,101219.69
2018-12-29T23:53:47.684Z,101236.05
2018-12-29T23:56:16.570Z,101232.89
2018-12-29T23:58:45.429Z,101232.97
